Thunder radar more information blitzortung!


Radar de pluja more information rain snow radar


Visita la nostra xarxa de llocs de meteo:

Template documentation
and downloads

And another site



No particular awareness of the weather is required.    There are no Weather-warnings

Pagina Historial Weather Underground text

Diari Resum Abril 20, 2016 Unitats:  Mètric    Imperial   Tant
« Previous Dia
SegĂźent Dia »
Diari Setmana Mensual Anual Personalitzada
  Maxima: Minima: Media:
Temperatura: 20.8 °C 10.7 °C 17.4 °C
Punt de rosada: 5.6 °C 0.7 °C 3.9 °C
Humitat: 53 % 31 % 41 %
Wind Speed: 37.0 km/h 0.0 km/h 13 km/h
RĂ fegues de vent: 37.0 km/h - -
Vent:- - East
Pression baro: 1021.9 hPa 1017.8 hPa -
Precipitacions: 0.0 mm    
Historical Graphs
 
 
Dades de taula per Abril 20, 2016
Temps Temperatura Punt de rosada Pression baro Vent Wind Speed RĂ fegues de vent Humitat Rainfall Rate (Hourly)
00:05 11.6 °C 1.5 °C 1018.8 hPa NE 1.6 km/h 4.8 km/h 50 % 0.0 mm
00:15 11.7 °C 1.6 °C 1017.8 hPa NE 4.8 km/h 4.8 km/h 50 % 0.0 mm
00:25 11.7 °C 1.3 °C 1017.8 hPa NE 1.6 km/h 4.8 km/h 49 % 0.0 mm
00:35 11.4 °C 1.3 °C 1017.8 hPa Calm   1.6 km/h 50 % 0.0 mm
00:45 11.3 °C 1.2 °C 1018.8 hPa West 1.6 km/h 3.2 km/h 50 % 0.0 mm
00:55 11.2 °C 1.2 °C 1018.8 hPa Calm     50 % 0.0 mm
01:05 11.2 °C 1.2 °C 1018.8 hPa Calm   1.6 km/h 50 % 0.0 mm
01:15 11.1 °C 1.1 °C 1017.8 hPa NNE 1.6 km/h 1.6 km/h 50 % 0.0 mm
01:35 10.9 °C 0.9 °C 1017.8 hPa NNE 1.6 km/h 4.8 km/h 50 % 0.0 mm
01:45 10.7 °C 0.7 °C 1017.8 hPa North 1.6 km/h 3.2 km/h 50 % 0.0 mm
01:55 10.8 °C 0.8 °C 1017.8 hPa NNE 3.2 km/h 4.8 km/h 50 % 0.0 mm
02:05 11.1 °C 1.1 °C 1017.8 hPa NE 4.8 km/h 6.4 km/h 50 % 0.0 mm
02:25 12.0 °C 1.6 °C 1017.8 hPa NE 8.0 km/h 9.7 km/h 49 % 0.0 mm
02:35 12.0 °C 1.6 °C 1017.8 hPa NE 4.8 km/h 8.0 km/h 49 % 0.0 mm
02:45 12.1 °C 1.7 °C 1017.8 hPa ENE 3.2 km/h 4.8 km/h 49 % 0.0 mm
02:55 12.2 °C 1.8 °C 1017.8 hPa ENE 3.2 km/h 4.8 km/h 49 % 0.0 mm
03:05 12.6 °C 1.9 °C 1017.8 hPa NE 9.7 km/h 9.7 km/h 48 % 0.0 mm
03:15 13.5 °C 2.4 °C 1017.8 hPa NE 4.8 km/h 9.7 km/h 47 % 0.0 mm
03:25 13.8 °C 2.4 °C 1017.8 hPa NE 8.0 km/h 9.7 km/h 46 % 0.0 mm
03:35 14.1 °C 2.7 °C 1017.8 hPa ENE 4.8 km/h 9.7 km/h 46 % 0.0 mm
03:45 14.2 °C 3.1 °C 1017.8 hPa ENE 3.2 km/h 6.4 km/h 47 % 0.0 mm
03:55 14.4 °C 2.9 °C 1017.8 hPa ENE 3.2 km/h 6.4 km/h 46 % 0.0 mm
04:05 14.8 °C 3.3 °C 1018.8 hPa East 9.7 km/h 14.5 km/h 46 % 0.0 mm
04:15 15.0 °C 3.2 °C 1018.8 hPa East 8.0 km/h 12.9 km/h 45 % 0.0 mm
04:25 15.7 °C 3.4 °C 1018.8 hPa East 11.3 km/h 12.9 km/h 44 % 0.0 mm
04:35 16.2 °C 3.6 °C 1019.9 hPa ENE 8.0 km/h 20.9 km/h 43 % 0.0 mm
04:45 16.3 °C 3.3 °C 1019.9 hPa ENE 11.3 km/h 14.5 km/h 42 % 0.0 mm
04:55 16.4 °C 3.1 °C 1019.9 hPa ENE 11.3 km/h 11.3 km/h 41 % 0.0 mm
05:05 16.4 °C 3.1 °C 1019.9 hPa ENE 8.0 km/h 11.3 km/h 41 % 0.0 mm
05:15 16.5 °C 3.2 °C 1019.9 hPa ENE 4.8 km/h 9.7 km/h 41 % 0.0 mm
05:25 16.7 °C 3.4 °C 1019.9 hPa ENE 4.8 km/h 11.3 km/h 41 % 0.0 mm
05:35 16.9 °C 3.2 °C 1019.9 hPa East 4.8 km/h 9.7 km/h 40 % 0.0 mm
05:45 17.2 °C 3.4 °C 1019.9 hPa East 9.7 km/h 16.1 km/h 40 % 0.0 mm
05:55 17.3 °C 3.6 °C 1019.9 hPa East 8.0 km/h 9.7 km/h 40 % 0.0 mm
06:05 17.6 °C 3.8 °C 1019.9 hPa ENE 4.8 km/h 8.0 km/h 40 % 0.0 mm
06:15 18.0 °C 3.4 °C 1019.9 hPa ENE 8.0 km/h 11.3 km/h 38 % 0.0 mm
06:25 18.2 °C 2.9 °C 1019.9 hPa NE 9.7 km/h 17.7 km/h 36 % 0.0 mm
06:35 18.3 °C 1.7 °C 1019.9 hPa NE 16.1 km/h 20.9 km/h 33 % 0.0 mm
06:45 18.7 °C 2.1 °C 1019.9 hPa NE 14.5 km/h 24.1 km/h 33 % 0.0 mm
06:55 19.0 °C 2.3 °C 1019.9 hPa NE 12.9 km/h 17.7 km/h 33 % 0.0 mm
07:05 19.2 °C 2.1 °C 1019.9 hPa NE 16.1 km/h 20.9 km/h 32 % 0.0 mm
07:15 19.5 °C 2.3 °C 1018.8 hPa NE 14.5 km/h 17.7 km/h 32 % 0.0 mm
07:25 19.9 °C 2.7 °C 1018.8 hPa ENE 11.3 km/h 22.5 km/h 32 % 0.0 mm
07:35 20.2 °C 2.9 °C 1019.9 hPa ENE 16.1 km/h 19.3 km/h 32 % 0.0 mm
08:05 20.2 °C 3.4 °C 1019.9 hPa ENE 14.5 km/h 20.9 km/h 33 % 0.0 mm
08:15 20.6 °C 4.2 °C 1019.9 hPa ENE 12.9 km/h 24.1 km/h 34 % 0.0 mm
12:38 20.2 °C 2.9 °C 1019.9 hPa NE 16.7 km/h 16.7 km/h 32 % 0.0 mm
12:43 20.3 °C 2.6 °C 1019.9 hPa ENE 16.4 km/h 16.4 km/h 31 % 0.0 mm
12:48 20.3 °C 3.1 °C 1019.9 hPa ENE 25.9 km/h 25.9 km/h 32 % 0.0 mm
12:53 20.1 °C 3.3 °C 1019.9 hPa ENE 20.4 km/h 20.4 km/h 33 % 0.0 mm
13:25 20.6 °C 4.6 °C 1019.9 hPa ENE 14.8 km/h 14.8 km/h 35 % 0.0 mm
13:30 20.6 °C 4.6 °C 1019.9 hPa NE 35.2 km/h 35.2 km/h 35 % 0.0 mm
13:35 20.4 °C 4.4 °C 1019.9 hPa East 18.5 km/h 18.5 km/h 35 % 0.0 mm
13:40 20.5 °C 4.5 °C 1019.9 hPa SSE 20.4 km/h 20.4 km/h 35 % 0.0 mm
13:45 20.3 °C 4.3 °C 1019.9 hPa East 24.1 km/h 24.1 km/h 35 % 0.0 mm
13:50 20.5 °C 4.5 °C 1019.9 hPa NE 18.5 km/h 18.5 km/h 35 % 0.0 mm
13:55 20.7 °C 4.7 °C 1019.9 hPa East 19.8 km/h 19.8 km/h 35 % 0.0 mm
14:00 20.5 °C 4.5 °C 1019.9 hPa ESE 27.8 km/h 27.8 km/h 35 % 0.0 mm
14:05 20.5 °C 4.1 °C 1019.9 hPa ENE 18.5 km/h 18.5 km/h 34 % 0.0 mm
14:10 20.8 °C 4.3 °C 1019.9 hPa NNE 18.5 km/h 18.5 km/h 34 % 0.0 mm
14:15 20.5 °C 4.1 °C 1018.8 hPa ENE 22.2 km/h 22.2 km/h 34 % 0.0 mm
14:20 20.4 °C 3.6 °C 1018.8 hPa NE 27.8 km/h 27.8 km/h 33 % 0.0 mm
14:25 20.5 °C 3.7 °C 1018.8 hPa East 18.5 km/h 18.5 km/h 33 % 0.0 mm
14:30 20.2 °C 3.4 °C 1019.9 hPa ESE 31.7 km/h 31.7 km/h 33 % 0.0 mm
14:35 20.2 °C 3.8 °C 1019.9 hPa East 20.4 km/h 20.4 km/h 34 % 0.0 mm
14:40 20.3 °C 3.9 °C 1019.9 hPa ESE 18.5 km/h 18.5 km/h 34 % 0.0 mm
14:45 20.3 °C 4.3 °C 1019.9 hPa ESE 20.4 km/h 20.4 km/h 35 % 0.0 mm
14:50 20.3 °C 4.3 °C 1019.9 hPa NNE 20.4 km/h 20.4 km/h 35 % 0.0 mm
14:55 20.2 °C 3.8 °C 1019.9 hPa ENE 16.7 km/h 16.9 km/h 34 % 0.0 mm
15:00 20.0 °C 4.1 °C 1019.9 hPa ENE 20.4 km/h 20.4 km/h 35 % 0.0 mm
15:05 20.0 °C 4.1 °C 1019.9 hPa ENE 18.5 km/h 18.5 km/h 35 % 0.0 mm
15:10 19.9 °C 4.4 °C 1019.9 hPa NNE 20.4 km/h 20.4 km/h 36 % 0.0 mm
15:15 20.0 °C 4.1 °C 1019.9 hPa ESE 31.5 km/h 31.5 km/h 35 % 0.0 mm
15:20 19.8 °C 4.3 °C 1019.9 hPa ESE 20.4 km/h 20.4 km/h 36 % 0.0 mm
15:26 19.9 °C 4.4 °C 1019.9 hPa East 25.9 km/h 25.9 km/h 36 % 0.0 mm
15:31 19.8 °C 4.3 °C 1019.9 hPa ESE 29.6 km/h 29.6 km/h 36 % 0.0 mm
15:36 20.0 °C 4.1 °C 1019.9 hPa East 20.4 km/h 20.4 km/h 35 % 0.0 mm
15:41 20.2 °C 4.2 °C 1019.9 hPa East 24.1 km/h 24.1 km/h 35 % 0.0 mm
15:46 20.3 °C 4.3 °C 1019.9 hPa East 24.1 km/h 24.1 km/h 35 % 0.0 mm
15:51 20.3 °C 4.3 °C 1019.9 hPa East 16.7 km/h 16.7 km/h 35 % 0.0 mm
15:56 20.1 °C 3.7 °C 1019.9 hPa ENE 29.6 km/h 29.6 km/h 34 % 0.0 mm
16:01 20.4 °C 4.4 °C 1019.9 hPa East 11.1 km/h 11.1 km/h 35 % 0.0 mm
16:06 20.4 °C 3.6 °C 1019.9 hPa ENE 22.2 km/h 22.2 km/h 33 % 0.0 mm
16:11 20.5 °C 4.1 °C 1019.9 hPa ENE 20.4 km/h 20.4 km/h 34 % 0.0 mm
16:16 20.4 °C 4.0 °C 1019.9 hPa ESE 37.0 km/h 37.0 km/h 34 % 0.0 mm
16:21 20.3 °C 3.9 °C 1019.9 hPa ESE 27.8 km/h 27.8 km/h 34 % 0.0 mm
16:26 20.1 °C 3.7 °C 1019.9 hPa ESE 25.6 km/h 25.6 km/h 34 % 0.0 mm
16:31 19.9 °C 3.6 °C 1019.9 hPa NNE 24.1 km/h 24.1 km/h 34 % 0.0 mm
16:36 20.0 °C 3.2 °C 1019.9 hPa ESE 29.6 km/h 29.6 km/h 33 % 0.0 mm
16:41 20.1 °C 3.3 °C 1019.9 hPa ENE 16.7 km/h 16.7 km/h 33 % 0.0 mm
16:46 20.2 °C 3.8 °C 1019.9 hPa NE 16.7 km/h 16.7 km/h 34 % 0.0 mm
16:51 20.4 °C 4.0 °C 1019.9 hPa ENE 23.0 km/h 23.0 km/h 34 % 0.0 mm
16:56 20.2 °C 3.8 °C 1019.9 hPa ENE 21.2 km/h 21.2 km/h 34 % 0.0 mm
17:01 20.1 °C 3.7 °C 1018.8 hPa ESE 22.2 km/h 22.2 km/h 34 % 0.0 mm
17:06 20.0 °C 4.1 °C 1018.8 hPa NE 25.9 km/h 25.9 km/h 35 % 0.0 mm
17:11 19.8 °C 4.3 °C 1018.8 hPa ENE 22.2 km/h 22.2 km/h 36 % 0.0 mm
17:16 19.6 °C 4.5 °C 1018.8 hPa East 17.5 km/h 17.5 km/h 37 % 0.0 mm
17:21 19.3 °C 4.6 °C 1018.8 hPa ENE 16.7 km/h 16.7 km/h 38 % 0.0 mm
17:26 19.2 °C 4.5 °C 1018.8 hPa NNW 12.6 km/h 12.6 km/h 38 % 0.0 mm
17:31 19.1 °C 4.8 °C 1018.8 hPa NNE 22.2 km/h 22.2 km/h 39 % 0.0 mm
17:36 19.0 °C 5.1 °C 1018.8 hPa SSE 27.8 km/h 27.8 km/h 40 % 0.0 mm
17:41 19.0 °C 5.1 °C 1018.8 hPa ENE 16.7 km/h 16.7 km/h 40 % 0.0 mm
17:46 19.0 °C 5.1 °C 1018.8 hPa ESE 22.2 km/h 22.2 km/h 40 % 0.0 mm
17:51 18.8 °C 5.3 °C 1018.8 hPa ESE 22.2 km/h 22.2 km/h 41 % 0.0 mm
17:56 18.6 °C 5.1 °C 1018.8 hPa ENE 21.2 km/h 21.2 km/h 41 % 0.0 mm
18:01 18.7 °C 5.2 °C 1019.9 hPa NNE 16.7 km/h 16.7 km/h 41 % 0.0 mm
18:06 18.6 °C 5.1 °C 1019.9 hPa NNE 22.2 km/h 22.2 km/h 41 % 0.0 mm
18:11 18.6 °C 5.4 °C 1019.9 hPa ESE 18.5 km/h 18.5 km/h 42 % 0.0 mm
18:16 18.8 °C 5.6 °C 1019.9 hPa NNE 14.8 km/h 14.8 km/h 42 % 0.0 mm
18:21 18.8 °C 5.6 °C 1019.9 hPa SSE 13.0 km/h 13.0 km/h 42 % 0.0 mm
18:26 18.5 °C 5.3 °C 1019.9 hPa ENE 14.8 km/h 15.8 km/h 42 % 0.0 mm
18:31 18.3 °C 5.2 °C 1019.9 hPa ESE 22.2 km/h 22.2 km/h 42 % 0.0 mm
18:36 18.3 °C 5.2 °C 1019.9 hPa ENE 20.4 km/h 20.4 km/h 42 % 0.0 mm
18:41 18.2 °C 5.1 °C 1019.9 hPa ESE 18.3 km/h 18.3 km/h 42 % 0.0 mm
18:46 18.2 °C 5.4 °C 1019.9 hPa ENE 10.0 km/h 10.0 km/h 43 % 0.0 mm
18:51 18.2 °C 5.1 °C 1019.9 hPa SE 13.0 km/h 13.0 km/h 42 % 0.0 mm
18:56 18.1 °C 5.0 °C 1019.9 hPa NNE 13.0 km/h 13.0 km/h 42 % 0.0 mm
18:57 18.1 °C 5.0 °C 1019.9 hPa East 13.0 km/h 13.0 km/h 42 % 0.0 mm
19:02 18.0 °C 4.9 °C 1019.9 hPa SE 13.0 km/h 13.0 km/h 42 % 0.0 mm
19:12 18.0 °C 4.9 °C 1019.9 hPa ENE 18.5 km/h 18.5 km/h 42 % 0.0 mm
19:17 18.0 °C 4.9 °C 1019.9 hPa ESE 11.9 km/h 11.9 km/h 42 % 0.0 mm
19:22 17.9 °C 4.8 °C 1019.9 hPa ESE 20.4 km/h 20.4 km/h 42 % 0.0 mm
19:27 17.9 °C 4.8 °C 1019.9 hPa East 14.8 km/h 14.8 km/h 42 % 0.0 mm
19:32 17.8 °C 4.7 °C 1019.9 hPa ESE 6.1 km/h 7.9 km/h 42 % 0.0 mm
19:37 17.8 °C 4.7 °C 1019.9 hPa SE 18.5 km/h 18.5 km/h 42 % 0.0 mm
19:42 17.7 °C 4.6 °C 1019.9 hPa NNE 9.3 km/h 9.3 km/h 42 % 0.0 mm
19:47 17.7 °C 4.6 °C 1018.8 hPa East 5.6 km/h 6.1 km/h 42 % 0.0 mm
19:52 17.6 °C 4.2 °C 1018.8 hPa ENE 14.8 km/h 14.8 km/h 41 % 0.0 mm
19:57 17.6 °C 4.2 °C 1018.8 hPa ENE 9.3 km/h 9.5 km/h 41 % 0.0 mm
20:02 17.6 °C 4.2 °C 1019.9 hPa ESE 12.2 km/h 12.2 km/h 41 % 0.0 mm
20:07 17.6 °C 4.2 °C 1019.9 hPa ENE 11.1 km/h 11.1 km/h 41 % 0.0 mm
20:12 17.6 °C 4.2 °C 1019.9 hPa ENE 9.3 km/h 9.3 km/h 41 % 0.0 mm
20:17 17.6 °C 3.8 °C 1019.9 hPa East 14.8 km/h 14.8 km/h 40 % 0.0 mm
20:22 17.5 °C 3.7 °C 1019.9 hPa ENE 14.8 km/h 14.8 km/h 40 % 0.0 mm
20:27 17.5 °C 3.7 °C 1019.9 hPa East 9.5 km/h 9.5 km/h 40 % 0.0 mm
20:32 17.5 °C 3.7 °C 1019.9 hPa ENE 5.8 km/h 6.9 km/h 40 % 0.0 mm
20:37 17.6 °C 3.4 °C 1019.9 hPa ENE 9.3 km/h 9.3 km/h 39 % 0.0 mm
20:42 17.6 °C 3.4 °C 1019.9 hPa ENE 13.7 km/h 13.7 km/h 39 % 0.0 mm
20:47 17.6 °C 3.1 °C 1019.9 hPa ENE 13.7 km/h 13.7 km/h 38 % 0.0 mm
20:52 17.5 °C 3.4 °C 1019.9 hPa NE 13.0 km/h 13.0 km/h 39 % 0.0 mm
20:57 17.5 °C 3.4 °C 1019.9 hPa ENE 9.3 km/h 9.3 km/h 39 % 0.0 mm
21:02 17.3 °C 3.6 °C 1019.9 hPa East 9.5 km/h 9.5 km/h 40 % 0.0 mm
21:07 17.0 °C 3.7 °C 1019.9 hPa NE 9.3 km/h 9.3 km/h 41 % 0.0 mm
21:12 17.0 °C 3.7 °C 1019.9 hPa ENE 9.5 km/h 9.5 km/h 41 % 0.0 mm
21:17 16.8 °C 3.8 °C 1019.9 hPa ESE 10.0 km/h 10.0 km/h 42 % 0.0 mm
21:22 16.5 °C 3.9 °C 1019.9 hPa ESE 10.0 km/h 10.0 km/h 43 % 0.0 mm
21:27 16.3 °C 3.7 °C 1019.9 hPa ESE 10.0 km/h 10.0 km/h 43 % 0.0 mm
21:32 16.3 °C 3.7 °C 1019.9 hPa ENE 7.4 km/h 7.4 km/h 43 % 0.0 mm
21:42 16.3 °C 4.0 °C 1019.9 hPa NE 5.6 km/h 9.5 km/h 44 % 0.0 mm
21:47 16.2 °C 3.9 °C 1019.9 hPa NE 5.6 km/h 9.5 km/h 44 % 0.0 mm
21:52 16.2 °C 4.2 °C 1019.9 hPa East 3.7 km/h 3.7 km/h 45 % 0.0 mm
21:57 16.2 °C 4.2 °C 1019.9 hPa ENE 4.7 km/h 4.7 km/h 45 % 0.0 mm
22:02 16.1 °C 4.4 °C 1019.9 hPa ENE 4.7 km/h 4.7 km/h 46 % 0.0 mm
22:07 16.0 °C 4.1 °C 1019.9 hPa ENE 4.7 km/h 4.7 km/h 45 % 0.0 mm
22:12 15.9 °C 4.3 °C 1019.9 hPa ENE 4.7 km/h 4.7 km/h 46 % 0.0 mm
22:17 15.9 °C 4.3 °C 1019.9 hPa ENE 4.7 km/h 4.7 km/h 46 % 0.0 mm
22:22 15.2 °C 4.8 °C 1019.9 hPa ENE 4.7 km/h 4.7 km/h 50 % 0.0 mm
22:27 15.0 °C 5.2 °C 1019.9 hPa SSW 3.7 km/h 4.7 km/h 52 % 0.0 mm
22:32 15.0 °C 5.5 °C 1021.9 hPa SW 2.6 km/h 3.9 km/h 53 % 0.0 mm
22:37 15.0 °C 5.2 °C 1021.9 hPa SW 2.6 km/h 3.9 km/h 52 % 0.0 mm
22:42 15.1 °C 5.6 °C 1021.9 hPa SW 2.6 km/h 3.9 km/h 53 % 0.0 mm
22:47 15.1 °C 5.3 °C 1019.9 hPa SW 2.6 km/h 3.9 km/h 52 % 0.0 mm
22:52 15.3 °C 5.5 °C 1019.9 hPa SW 2.6 km/h 3.9 km/h 52 % 0.0 mm
22:57 15.3 °C 5.5 °C 1019.9 hPa SW 2.6 km/h 3.9 km/h 52 % 0.0 mm
23:02 15.2 °C 5.4 °C 1021.9 hPa ENE 2.6 km/h 4.7 km/h 52 % 0.0 mm
23:07 15.2 °C 5.4 °C 1021.9 hPa East 4.7 km/h 4.7 km/h 52 % 0.0 mm
23:12 15.1 °C 5.3 °C 1021.9 hPa East 4.7 km/h 4.7 km/h 52 % 0.0 mm
23:17 15.1 °C 5.3 °C 1021.9 hPa East 4.7 km/h 4.7 km/h 52 % 0.0 mm
23:22 15.1 °C 5.3 °C 1021.9 hPa East 4.7 km/h 4.7 km/h 52 % 0.0 mm
23:27 15.1 °C 5.3 °C 1021.9 hPa East 4.7 km/h 4.7 km/h 52 % 0.0 mm
23:32 15.1 °C 5.3 °C 1021.9 hPa East 4.7 km/h 4.7 km/h 52 % 0.0 mm
23:37 15.1 °C 5.3 °C 1021.9 hPa East 4.7 km/h 4.7 km/h 52 % 0.0 mm
23:42 15.1 °C 5.3 °C 1021.9 hPa East 4.7 km/h 4.7 km/h 52 % 0.0 mm
23:47 15.1 °C 5.3 °C 1021.9 hPa East 4.7 km/h 4.7 km/h 52 % 0.0 mm
23:52 15.1 °C 5.3 °C 1021.9 hPa East 4.7 km/h 4.7 km/h 52 % 0.0 mm
23:57 15.1 °C 5.3 °C 1021.9 hPa East 4.7 km/h 4.7 km/h 52 % 0.0 mm
Meteo Sesrovires
Elogis d' Weather Underground - 3.5 mb

Guio original per  Jim McMurry - jmcmurry@mwt.net Adaptat per a la plantilla per  Wim van der Kuil - Leuven-Template.eu

Trobareu la nostra informacio del temps tambe a:

Weather Underground

AWEKAS